createdAt,value
2019-02-09T00:00:19.976Z,2.2
2019-02-09T00:01:20.575Z,2.2
2019-02-09T00:02:19.481Z,2.1
2019-02-09T00:03:19.727Z,2.1
2019-02-09T00:04:19.495Z,2.2
2019-02-09T00:05:20.490Z,2.2
2019-02-09T00:06:35.839Z,2.2
2019-02-09T00:07:20.387Z,2.1
2019-02-09T00:08:19.692Z,2.1
2019-02-09T00:09:19.754Z,2.0
2019-02-09T00:10:19.679Z,2.0
2019-02-09T00:11:20.324Z,2.0
2019-02-09T00:12:19.532Z,1.9
2019-02-09T00:13:19.671Z,1.9
2019-02-09T00:14:19.907Z,1.5
2019-02-09T00:15:19.694Z,1.5
2019-02-09T00:16:19.968Z,1.5
2019-02-09T00:17:19.712Z,1.5
2019-02-09T00:18:19.494Z,1.5
2019-02-09T00:19:19.443Z,1.5
2019-02-09T00:20:19.509Z,1.5
2019-02-09T00:21:19.590Z,1.5
2019-02-09T00:22:20.023Z,1.5
2019-02-09T00:23:19.787Z,1.5
2019-02-09T00:24:20.723Z,1.5
2019-02-09T00:25:19.717Z,1.5
2019-02-09T00:26:19.947Z,1.5
2019-02-09T00:27:20.456Z,1.4
2019-02-09T00:28:20.182Z,1.4
2019-02-09T00:29:19.650Z,1.4
2019-02-09T00:30:20.536Z,1.5
2019-02-09T00:31:20.339Z,1.5
2019-02-09T00:32:20.493Z,1.5
2019-02-09T00:33:19.553Z,1.5
2019-02-09T00:34:19.780Z,1.5
2019-02-09T00:35:21.274Z,1.5
2019-02-09T00:36:19.516Z,1.5
2019-02-09T00:37:19.556Z,1.4
2019-02-09T00:38:21.285Z,1.4
2019-02-09T00:39:19.862Z,1.4
2019-02-09T00:40:20.159Z,1.5
2019-02-09T00:41:19.759Z,1.5
2019-02-09T00:44:00.906Z,1.1
2019-02-09T00:44:09.925Z,1.1
2019-02-09T00:45:10.688Z,1.2
2019-02-09T00:46:09.750Z,1.2
2019-02-09T00:47:10.015Z,1.2
2019-02-09T00:48:09.950Z,1.2
2019-02-09T00:49:09.803Z,1.2
2019-02-09T00:50:09.974Z,1.4
2019-02-09T00:51:10.149Z,1.4
2019-02-09T00:52:10.219Z,1.4
2019-02-09T00:53:10.226Z,1.3
2019-02-09T00:54:09.782Z,1.3
2019-02-09T00:55:10.823Z,1.3
2019-02-09T00:56:09.948Z,1.3
2019-02-09T00:57:11.234Z,1.3
2019-02-09T00:58:09.962Z,1.5
2019-02-09T00:59:09.844Z,1.5
2019-02-09T01:00:10.108Z,1.9
2019-02-09T01:01:11.203Z,1.9
2019-02-09T01:02:10.183Z,1.9
2019-02-09T01:03:09.974Z,1.9
2019-02-09T01:04:10.182Z,1.9
2019-02-09T01:05:09.704Z,1.9
2019-02-09T01:06:09.981Z,1.9
2019-02-09T01:07:09.958Z,1.9
2019-02-09T01:08:10.601Z,1.9
2019-02-09T01:09:10.607Z,1.9
2019-02-09T01:10:09.972Z,1.6
2019-02-09T01:11:11.266Z,1.6
2019-02-09T01:12:09.961Z,1.6
2019-02-09T01:13:09.937Z,1.5
2019-02-09T01:14:10.538Z,1.5
2019-02-09T01:15:10.673Z,1.2
2019-02-09T01:16:11.316Z,1.2
2019-02-09T01:17:10.034Z,1.2
2019-02-09T01:18:11.036Z,1.0
2019-02-09T01:19:10.601Z,1.0
2019-02-09T01:20:10.214Z,1.0
2019-02-09T01:21:11.487Z,1.1
2019-02-09T01:22:11.865Z,1.1
2019-02-09T01:23:10.802Z,1.2
2019-02-09T01:24:11.056Z,1.2
2019-02-09T01:25:13.226Z,1.2
2019-02-09T01:26:10.047Z,1.5
2019-02-09T01:27:09.986Z,1.5
2019-02-09T01:28:09.838Z,1.6
2019-02-09T01:29:10.599Z,1.6
2019-02-09T01:30:10.002Z,1.6
2019-02-09T01:31:09.916Z,1.7
2019-02-09T01:32:10.002Z,1.7
2019-02-09T01:33:11.018Z,1.9
2019-02-09T01:34:10.035Z,1.9
2019-02-09T01:35:10.217Z,1.9
2019-02-09T01:36:09.815Z,2.2
2019-02-09T01:37:09.855Z,2.2
2019-02-09T01:38:10.275Z,2.5
2019-02-09T01:39:26.249Z,2.5
2019-02-09T01:40:10.214Z,2.5
2019-02-09T01:41:10.019Z,2.7
2019-02-09T01:42:11.364Z,2.7
2019-02-09T01:43:10.330Z,2.7
2019-02-09T01:44:12.936Z,2.7
2019-02-09T01:45:10.070Z,2.7
2019-02-09T01:46:09.909Z,2.7
2019-02-09T01:47:10.753Z,2.7
2019-02-09T01:48:10.916Z,2.8
2019-02-09T01:49:10.118Z,2.8
2019-02-09T01:50:10.578Z,2.8
2019-02-09T01:51:11.378Z,2.8
2019-02-09T01:52:09.861Z,2.8
2019-02-09T01:53:10.695Z,2.8
2019-02-09T01:54:10.074Z,2.7
2019-02-09T01:55:10.156Z,2.7
2019-02-09T01:56:10.399Z,2.4
2019-02-09T01:57:10.293Z,2.4
2019-02-09T01:58:11.145Z,2.4
2019-02-09T01:59:09.948Z,2.4
2019-02-09T02:00:10.533Z,2.4
2019-02-09T02:01:10.084Z,2.5
2019-02-09T02:02:09.966Z,2.5
2019-02-09T02:03:10.368Z,2.5
2019-02-09T02:04:10.463Z,2.6
2019-02-09T02:05:10.705Z,2.6
2019-02-09T02:06:12.282Z,2.8
2019-02-09T02:07:11.707Z,2.8
2019-02-09T02:08:09.885Z,2.8
2019-02-09T02:09:10.841Z,2.8
2019-02-09T02:10:10.943Z,2.8
2019-02-09T02:11:11.409Z,2.9
2019-02-09T02:12:09.995Z,2.9
2019-02-09T02:13:10.384Z,2.9
2019-02-09T02:14:10.605Z,2.9
2019-02-09T02:15:10.063Z,2.9
2019-02-09T02:16:10.335Z,3.1
2019-02-09T02:17:26.176Z,3.1
2019-02-09T02:18:10.091Z,3.1
2019-02-09T02:19:09.972Z,3.1
2019-02-09T02:20:10.226Z,3.1
2019-02-09T02:21:10.359Z,3.1
2019-02-09T02:22:10.078Z,3.2
2019-02-09T02:23:10.357Z,3.2
2019-02-09T02:24:10.896Z,3.2
2019-02-09T02:25:10.880Z,3.2
2019-02-09T02:26:10.139Z,3.2
2019-02-09T02:27:20.156Z,3.2
2019-02-09T02:28:11.375Z,3.2
2019-02-09T02:29:10.331Z,3.2
2019-02-09T02:30:10.188Z,3.2
2019-02-09T02:31:09.922Z,3.2
2019-02-09T02:32:10.154Z,3.2
2019-02-09T02:33:10.403Z,3.2
2019-02-09T02:34:10.122Z,3.2
2019-02-09T02:35:10.110Z,3.2
2019-02-09T02:36:10.065Z,3.2
2019-02-09T02:37:10.729Z,3.2
2019-02-09T02:39:23.210Z,3.3
2019-02-09T02:40:23.034Z,3.3
2019-02-09T02:41:23.860Z,3.3
2019-02-09T02:42:23.484Z,3.4
2019-02-09T02:43:22.988Z,3.4
2019-02-09T02:44:23.160Z,3.5
2019-02-09T02:45:23.190Z,3.5
2019-02-09T02:46:23.398Z,3.5
2019-02-09T02:47:23.241Z,3.5
2019-02-09T02:48:23.453Z,3.5
2019-02-09T02:49:51.924Z,3.5
2019-02-09T02:50:23.239Z,3.5
2019-02-09T02:51:23.452Z,3.5
2019-02-09T02:52:23.139Z,3.5
2019-02-09T02:53:23.032Z,3.5
2019-02-09T02:54:23.676Z,3.5
2019-02-09T02:55:23.868Z,3.5
2019-02-09T02:56:23.727Z,3.5
2019-02-09T02:57:24.756Z,3.5
2019-02-09T02:58:23.474Z,3.5
2019-02-09T02:59:23.197Z,3.5
2019-02-09T03:00:31.381Z,3.5
2019-02-09T03:01:23.529Z,3.5
2019-02-09T03:02:23.017Z,3.5
2019-02-09T03:03:24.022Z,3.5
2019-02-09T03:04:23.757Z,3.5
2019-02-09T03:05:23.191Z,3.5
2019-02-09T03:06:23.354Z,3.5
2019-02-09T03:07:23.687Z,3.3
2019-02-09T03:08:23.849Z,3.3
2019-02-09T03:09:23.899Z,3.3
2019-02-09T03:10:23.416Z,3.4
2019-02-09T03:11:23.477Z,3.4
2019-02-09T03:12:23.234Z,3.5
2019-02-09T03:13:23.084Z,3.5
2019-02-09T03:14:23.804Z,3.5
2019-02-09T03:15:24.123Z,3.7
2019-02-09T03:16:23.175Z,3.7
2019-02-09T03:17:23.680Z,3.9
2019-02-09T03:18:23.932Z,3.9
2019-02-09T03:19:23.234Z,3.9
2019-02-09T03:20:23.472Z,3.9
2019-02-09T03:21:23.257Z,3.9
2019-02-09T03:22:23.080Z,3.7
2019-02-09T03:23:23.887Z,3.7
2019-02-09T03:24:23.208Z,3.7
2019-02-09T03:25:23.571Z,3.8
2019-02-09T03:26:23.485Z,3.8
2019-02-09T03:30:46.580Z,3.8
2019-02-09T03:30:54.537Z,3.8
2019-02-09T03:31:53.794Z,3.8
2019-02-09T03:32:53.966Z,3.7
2019-02-09T03:33:54.283Z,3.7
2019-02-09T03:34:54.604Z,3.7
2019-02-09T03:35:54.141Z,3.7
2019-02-09T03:36:54.011Z,3.7
2019-02-09T03:37:53.637Z,3.6
2019-02-09T03:38:53.787Z,3.6
2019-02-09T03:39:53.795Z,3.6
2019-02-09T03:40:53.873Z,3.5
2019-02-09T03:41:53.820Z,3.5
2019-02-09T03:42:54.034Z,3.5
2019-02-09T03:43:53.783Z,3.5
2019-02-09T03:44:53.824Z,3.5
2019-02-09T03:45:53.813Z,3.5
2019-02-09T03:46:54.000Z,3.5
2019-02-09T03:47:53.811Z,3.7
2019-02-09T03:48:54.240Z,3.7
2019-02-09T03:49:53.746Z,3.7
2019-02-09T03:50:54.025Z,3.9
2019-02-09T03:51:53.561Z,3.9
2019-02-09T03:52:53.731Z,4.2
2019-02-09T03:53:54.009Z,4.2
2019-02-09T03:54:53.496Z,4.2
2019-02-09T03:55:53.537Z,4.3
2019-02-09T03:56:53.972Z,4.3
2019-02-09T03:57:53.581Z,4.5
2019-02-09T03:58:53.764Z,4.5
2019-02-09T03:59:54.327Z,4.5
2019-02-09T04:00:55.223Z,5.2
2019-02-09T04:01:54.283Z,5.2
2019-02-09T04:02:53.637Z,5.6
2019-02-09T04:03:54.045Z,5.6
2019-02-09T04:05:10.127Z,5.6
2019-02-09T04:05:53.768Z,5.8
2019-02-09T04:06:53.776Z,5.8
2019-02-09T04:07:53.974Z,5.8
2019-02-09T04:08:54.049Z,5.6
2019-02-09T04:09:53.544Z,5.6
2019-02-09T04:10:54.154Z,5.5
2019-02-09T04:11:53.677Z,5.5
2019-02-09T04:12:53.855Z,5.5
2019-02-09T04:13:54.098Z,5.4
2019-02-09T04:15:18.851Z,5.4
2019-02-09T04:15:54.079Z,5.4
2019-02-09T04:16:53.839Z,5.4
2019-02-09T04:17:56.053Z,5.4
2019-02-09T04:18:54.594Z,4.8
2019-02-09T04:19:54.814Z,4.8
2019-02-09T04:20:53.932Z,5.1
2019-02-09T04:21:53.924Z,5.1
2019-02-09T04:22:53.750Z,5.1
2019-02-09T04:23:54.481Z,5.2
2019-02-09T04:24:56.914Z,5.2
2019-02-09T04:25:54.150Z,5.2
2019-02-09T04:26:53.885Z,5.2
2019-02-09T04:27:55.820Z,5.2
2019-02-09T04:28:54.147Z,4.9
2019-02-09T04:29:54.558Z,4.9
2019-02-09T04:30:54.192Z,4.9
2019-02-09T04:31:54.170Z,4.9
2019-02-09T04:32:53.917Z,4.9
2019-02-09T04:33:54.617Z,4.7
2019-02-09T04:35:22.050Z,4.7
2019-02-09T04:35:54.360Z,4.7
2019-02-09T04:36:54.393Z,4.6
2019-02-09T04:37:53.910Z,4.6
2019-02-09T04:38:53.898Z,4.5
2019-02-09T04:39:54.162Z,4.5
2019-02-09T04:40:53.794Z,4.5
2019-02-09T04:41:53.864Z,4.4
2019-02-09T04:42:53.737Z,4.4
2019-02-09T04:43:54.262Z,4.2
2019-02-09T04:44:53.750Z,4.2
2019-02-09T04:47:06.615Z,4.3
2019-02-09T04:48:06.195Z,4.3
2019-02-09T04:49:06.246Z,4.1
2019-02-09T04:50:06.641Z,4.1
2019-02-09T04:51:06.482Z,4.1
2019-02-09T04:52:06.452Z,4.3
2019-02-09T04:53:07.127Z,4.3
2019-02-09T04:54:06.466Z,4.5
2019-02-09T04:55:06.567Z,4.5
2019-02-09T04:56:08.355Z,4.5
2019-02-09T05:03:40.422Z,4.4
2019-02-09T05:03:53.790Z,4.4
2019-02-09T05:04:53.138Z,4.5
2019-02-09T05:05:53.152Z,4.5
2019-02-09T05:06:53.274Z,4.5
2019-02-09T05:07:54.168Z,4.5
2019-02-09T05:08:53.129Z,4.5
2019-02-09T05:09:53.845Z,4.4
2019-02-09T05:10:53.544Z,4.4
2019-02-09T05:11:53.258Z,4.4
2019-02-09T05:12:53.309Z,4.4
2019-02-09T05:13:53.161Z,4.4
2019-02-09T05:14:53.325Z,4.4
2019-02-09T05:15:53.558Z,4.4
2019-02-09T05:16:53.378Z,4.5
2019-02-09T05:17:53.356Z,4.5
2019-02-09T05:18:53.601Z,4.5
2019-02-09T05:19:53.283Z,4.4
2019-02-09T05:20:53.120Z,4.4
2019-02-09T05:21:53.366Z,4.6
2019-02-09T05:22:53.545Z,4.6
2019-02-09T05:23:53.126Z,4.6
2019-02-09T05:24:53.740Z,4.7
2019-02-09T05:25:53.892Z,4.7
2019-02-09T05:26:53.095Z,4.6
2019-02-09T05:27:53.281Z,4.6
2019-02-09T05:28:55.927Z,4.6
2019-02-09T05:29:53.136Z,4.7
2019-02-09T05:30:54.246Z,4.7
2019-02-09T05:31:53.161Z,4.7
2019-02-09T05:32:53.391Z,4.7
2019-02-09T05:33:53.849Z,4.7
2019-02-09T05:34:54.793Z,4.8
2019-02-09T05:35:53.278Z,4.8
2019-02-09T05:36:53.563Z,4.8
2019-02-09T05:37:53.657Z,5.1
2019-02-09T05:38:53.953Z,5.1
2019-02-09T05:39:53.286Z,4.8
2019-02-09T05:40:54.821Z,4.8
2019-02-09T05:41:56.155Z,4.8
2019-02-09T05:42:57.113Z,4.8
2019-02-09T05:43:57.402Z,4.8
2019-02-09T05:44:54.296Z,4.7
2019-02-09T05:45:53.316Z,4.7
2019-02-09T05:46:53.421Z,4.7
2019-02-09T05:47:55.376Z,4.7
2019-02-09T05:48:53.322Z,4.7
2019-02-09T05:49:53.501Z,4.8
2019-02-09T05:50:53.439Z,4.8
2019-02-09T05:51:53.176Z,4.8
2019-02-09T05:52:54.475Z,4.7
2019-02-09T05:53:53.225Z,4.7
2019-02-09T05:54:53.285Z,4.9
2019-02-09T05:55:54.259Z,4.9
2019-02-09T05:56:56.426Z,4.9
2019-02-09T05:57:53.417Z,4.9
2019-02-09T05:58:53.240Z,4.9
2019-02-09T05:59:54.048Z,4.9
2019-02-09T06:00:53.169Z,4.9
2019-02-09T06:01:54.292Z,4.9
2019-02-09T06:02:54.124Z,4.9
2019-02-09T06:03:53.407Z,4.9
2019-02-09T06:04:54.431Z,4.9
2019-02-09T06:05:53.315Z,4.9
2019-02-09T06:06:53.466Z,4.9
2019-02-09T06:07:56.931Z,4.8
2019-02-09T06:08:53.651Z,4.8
2019-02-09T06:09:57.519Z,4.8
2019-02-09T06:10:53.629Z,4.9
2019-02-09T06:11:53.960Z,4.9
2019-02-09T06:12:54.054Z,5.1
2019-02-09T06:13:53.786Z,5.1
2019-02-09T06:14:53.367Z,5.1
2019-02-09T06:15:53.441Z,5.3
2019-02-09T06:16:53.459Z,5.3
2019-02-09T06:17:54.730Z,5.3
2019-02-09T06:18:53.886Z,5.3
2019-02-09T06:19:53.612Z,5.3
2019-02-09T06:20:53.572Z,5.4
2019-02-09T06:21:53.609Z,5.4
2019-02-09T06:27:50.229Z,5.4
2019-02-09T06:27:59.211Z,5.4
2019-02-09T06:28:59.172Z,5.4
2019-02-09T06:29:59.311Z,5.4
2019-02-09T06:30:59.376Z,5.2
2019-02-09T06:31:59.882Z,5.2
2019-02-09T06:32:59.600Z,5.2
2019-02-09T06:33:59.077Z,5.2
2019-02-09T06:34:59.326Z,5.2
2019-02-09T06:36:00.817Z,5.2
2019-02-09T06:38:13.183Z,5.3
2019-02-09T06:39:12.509Z,5.3
2019-02-09T06:40:12.644Z,5.3
2019-02-09T06:41:12.356Z,5.3
2019-02-09T06:42:12.167Z,5.3
2019-02-09T06:43:11.984Z,5.2
2019-02-09T06:44:12.780Z,5.2
2019-02-09T06:45:12.511Z,5.2
2019-02-09T06:46:11.961Z,5.3
2019-02-09T06:47:13.934Z,5.3
2019-02-09T06:49:30.446Z,5.6
2019-02-09T06:50:25.805Z,5.6
2019-02-09T06:51:26.214Z,5.5
2019-02-09T06:52:26.882Z,5.5
2019-02-09T06:53:33.862Z,5.4
2019-02-09T06:54:26.631Z,5.4
2019-02-09T06:55:26.076Z,5.4
2019-02-09T06:56:26.522Z,5.4
2019-02-09T06:57:26.068Z,5.4
2019-02-09T06:58:25.749Z,5.6
2019-02-09T06:59:27.351Z,5.6
2019-02-09T07:00:28.934Z,5.6
2019-02-09T07:01:26.221Z,5.6
2019-02-09T07:02:38.526Z,5.6
2019-02-09T07:03:26.796Z,5.6
2019-02-09T07:04:26.021Z,5.6
2019-02-09T07:05:25.745Z,5.6
2019-02-09T07:06:26.273Z,5.5
2019-02-09T07:07:26.819Z,5.5
2019-02-09T07:08:27.453Z,5.5
2019-02-09T07:09:42.661Z,5.5
2019-02-09T07:10:26.679Z,5.5
2019-02-09T07:11:25.982Z,5.5
2019-02-09T07:12:27.122Z,5.5
2019-02-09T07:13:29.680Z,5.5
2019-02-09T07:14:26.054Z,5.6
2019-02-09T07:15:27.418Z,5.6
2019-02-09T07:16:25.803Z,5.7
2019-02-09T07:17:26.328Z,5.7
2019-02-09T07:18:26.328Z,5.7
2019-02-09T07:19:26.139Z,5.8
2019-02-09T07:20:26.820Z,5.8
2019-02-09T07:21:25.771Z,5.8
2019-02-09T07:22:25.927Z,5.8
2019-02-09T07:23:25.665Z,5.8
2019-02-09T07:24:26.638Z,5.9
2019-02-09T07:25:25.911Z,5.9
2019-02-09T07:26:26.289Z,6.0
2019-02-09T07:27:55.106Z,6.0
2019-02-09T07:28:25.980Z,6.0
2019-02-09T07:29:25.659Z,5.9
2019-02-09T07:30:31.219Z,5.9
2019-02-09T07:31:25.902Z,5.8
2019-02-09T07:32:26.248Z,5.8
2019-02-09T07:33:27.307Z,5.8
2019-02-09T07:34:26.267Z,6.1
2019-02-09T07:35:26.043Z,6.1
2019-02-09T07:36:26.359Z,5.9
2019-02-09T07:37:25.927Z,5.9
2019-02-09T07:39:41.342Z,5.6
2019-02-09T07:40:39.275Z,5.6
2019-02-09T07:41:40.350Z,5.7
2019-02-09T07:42:39.234Z,5.7
2019-02-09T07:43:39.604Z,5.7
2019-02-09T07:44:39.994Z,5.8
2019-02-09T07:45:39.786Z,5.8
2019-02-09T07:46:39.521Z,6.0
2019-02-09T07:47:40.089Z,6.0
2019-02-09T07:48:39.815Z,6.0
2019-02-09T07:49:39.258Z,6.0
2019-02-09T07:50:41.265Z,6.0
2019-02-09T07:51:39.282Z,6.0
2019-02-09T07:52:42.875Z,6.0
2019-02-09T07:53:40.865Z,6.0
2019-02-09T07:54:39.977Z,5.8
2019-02-09T07:55:41.838Z,5.8
2019-02-09T07:56:43.082Z,5.8
2019-02-09T07:57:39.292Z,5.8
2019-02-09T07:58:41.182Z,5.8
2019-02-09T07:59:39.977Z,5.7
2019-02-09T08:00:39.282Z,5.7
2019-02-09T08:01:42.104Z,5.7
2019-02-09T08:02:43.667Z,5.6
2019-02-09T08:03:45.330Z,5.6
2019-02-09T08:04:41.463Z,5.6
2019-02-09T08:05:39.056Z,5.6
2019-02-09T08:06:42.580Z,5.6
2019-02-09T08:07:39.566Z,5.7
2019-02-09T08:08:39.695Z,5.7
2019-02-09T08:09:40.313Z,5.9
2019-02-09T08:10:39.037Z,5.9
2019-02-09T08:11:38.966Z,5.9
2019-02-09T08:12:39.159Z,5.9
2019-02-09T08:13:39.199Z,5.9
2019-02-09T08:14:39.014Z,5.9
2019-02-09T08:15:39.171Z,5.9
2019-02-09T08:16:40.217Z,5.9
2019-02-09T08:17:39.198Z,6.0
2019-02-09T08:18:39.473Z,6.0
2019-02-09T08:19:39.803Z,5.9
2019-02-09T08:20:39.010Z,5.9
2019-02-09T08:21:39.427Z,5.9
2019-02-09T08:22:39.016Z,6.0
2019-02-09T08:23:39.172Z,6.0
2019-02-09T08:24:39.263Z,6.0
2019-02-09T08:25:39.321Z,5.9
2019-02-09T08:26:39.215Z,5.9
2019-02-09T08:27:39.794Z,5.9
2019-02-09T08:28:39.708Z,5.9
2019-02-09T08:29:41.254Z,5.9
2019-02-09T08:30:39.195Z,5.9
2019-02-09T08:31:39.228Z,5.9
2019-02-09T08:32:39.018Z,6.0
2019-02-09T08:33:39.246Z,6.0
2019-02-09T08:34:39.467Z,6.0
2019-02-09T08:35:40.305Z,6.1
2019-02-09T08:36:39.288Z,6.1
2019-02-09T08:37:39.162Z,6.2
2019-02-09T08:38:39.464Z,6.2
2019-02-09T08:39:49.622Z,6.2
2019-02-09T08:40:39.328Z,6.4
2019-02-09T08:41:39.308Z,6.4
2019-02-09T08:42:39.915Z,6.5
2019-02-09T08:43:39.487Z,6.5
2019-02-09T08:44:38.991Z,6.5
2019-02-09T08:45:39.246Z,6.6
2019-02-09T08:46:39.008Z,6.6
2019-02-09T08:47:39.099Z,6.6
2019-02-09T08:48:39.498Z,6.6
2019-02-09T08:49:39.523Z,6.6
2019-02-09T08:50:39.512Z,6.7
2019-02-09T08:51:39.199Z,6.7
2019-02-09T08:52:39.209Z,6.7
2019-02-09T08:53:39.477Z,6.7
2019-02-09T08:54:39.482Z,6.7
2019-02-09T08:55:39.204Z,6.8
2019-02-09T08:56:39.261Z,6.8
2019-02-09T08:57:39.055Z,6.8
2019-02-09T08:58:39.033Z,6.8
2019-02-09T08:59:39.288Z,6.8
2019-02-09T09:00:39.268Z,6.9
2019-02-09T09:01:39.251Z,6.9
2019-02-09T09:02:39.182Z,6.9
2019-02-09T09:03:39.349Z,7.1
2019-02-09T09:04:39.171Z,7.1
2019-02-09T09:05:39.291Z,7.3
2019-02-09T09:06:39.255Z,7.3
2019-02-09T09:07:39.499Z,7.3
2019-02-09T09:08:39.994Z,7.4
2019-02-09T09:09:39.240Z,7.4
2019-02-09T09:10:39.236Z,7.4
2019-02-09T09:11:39.494Z,7.4
2019-02-09T09:12:39.512Z,7.4
2019-02-09T09:13:39.092Z,7.6
2019-02-09T09:24:31.498Z,7.6
2019-02-09T09:25:32.154Z,7.6
2019-02-09T09:26:31.697Z,7.7
2019-02-09T09:27:31.906Z,7.7
2019-02-09T09:28:31.724Z,7.7
2019-02-09T09:29:31.879Z,7.7
2019-02-09T09:30:31.950Z,7.7
2019-02-09T09:31:32.555Z,7.6
2019-02-09T09:32:32.163Z,7.6
2019-02-09T09:33:32.247Z,7.6
2019-02-09T09:34:32.928Z,7.6
2019-02-09T09:35:33.472Z,7.6
2019-02-09T09:36:32.119Z,7.5
2019-02-09T09:37:31.981Z,7.5
2019-02-09T09:38:31.915Z,7.4
2019-02-09T09:39:31.765Z,7.4
2019-02-09T09:40:32.829Z,7.4
2019-02-09T09:41:32.132Z,7.5
2019-02-09T09:42:31.732Z,7.5
2019-02-09T09:43:34.021Z,7.6
2019-02-09T09:44:32.139Z,7.6
2019-02-09T09:45:32.190Z,7.6
2019-02-09T09:46:31.749Z,7.6
2019-02-09T09:47:32.353Z,7.6
2019-02-09T09:48:31.914Z,7.6
2019-02-09T09:49:32.242Z,7.5
2019-02-09T09:50:32.970Z,7.5
2019-02-09T09:51:31.994Z,7.5
2019-02-09T09:52:31.849Z,7.5
2019-02-09T09:53:31.895Z,7.5
2019-02-09T09:54:31.969Z,7.7
2019-02-09T09:55:31.947Z,7.7
2019-02-09T09:56:32.027Z,7.6
2019-02-09T09:57:31.988Z,7.6
2019-02-09T09:58:32.253Z,7.6
2019-02-09T09:59:32.204Z,7.8
2019-02-09T10:00:31.965Z,7.8
2019-02-09T10:01:31.955Z,7.9
2019-02-09T10:03:00.653Z,7.9
2019-02-09T10:03:32.246Z,7.9
2019-02-09T10:04:32.169Z,8.0
2019-02-09T10:05:31.991Z,8.0
2019-02-09T10:06:32.313Z,8.0
2019-02-09T10:07:31.950Z,8.0
2019-02-09T10:08:32.088Z,8.0
2019-02-09T10:09:31.946Z,8.1
2019-02-09T10:10:32.191Z,8.1
2019-02-09T10:11:31.996Z,8.4
2019-02-09T10:12:32.258Z,8.4
2019-02-09T10:13:32.450Z,8.4
2019-02-09T10:14:32.238Z,8.5
2019-02-09T10:15:32.395Z,8.5
2019-02-09T10:16:31.998Z,8.5
2019-02-09T10:17:31.817Z,8.5
2019-02-09T10:18:32.225Z,8.5
2019-02-09T10:19:32.489Z,8.4
2019-02-09T10:20:31.875Z,8.4
2019-02-09T10:21:32.222Z,8.4
2019-02-09T10:22:32.031Z,8.4
2019-02-09T10:23:31.801Z,8.4
2019-02-09T10:24:31.820Z,8.4
2019-02-09T10:25:31.971Z,8.4
2019-02-09T10:26:32.027Z,8.4
2019-02-09T10:27:31.848Z,8.4
2019-02-09T10:28:32.004Z,8.4
2019-02-09T10:29:32.016Z,8.5
2019-02-09T10:30:32.654Z,8.5
2019-02-09T10:31:32.015Z,8.5
2019-02-09T10:32:32.247Z,8.5
2019-02-09T10:33:32.035Z,8.5
2019-02-09T10:34:31.932Z,8.4
2019-02-09T10:35:32.290Z,8.4
2019-02-09T10:36:32.311Z,8.4
2019-02-09T10:37:32.023Z,8.5
2019-02-09T10:38:33.289Z,8.5
2019-02-09T10:39:34.484Z,8.6
2019-02-09T10:40:32.252Z,8.6
2019-02-09T10:41:32.043Z,8.6
2019-02-09T10:42:32.282Z,8.8
2019-02-09T10:43:32.229Z,8.8
2019-02-09T10:44:31.999Z,8.8
2019-02-09T10:45:32.047Z,8.8
2019-02-09T10:46:31.915Z,8.8
2019-02-09T10:47:31.803Z,8.9
2019-02-09T10:48:32.020Z,8.9
2019-02-09T10:49:31.933Z,8.9
2019-02-09T10:50:31.874Z,9.1
2019-02-09T10:51:32.494Z,9.1
2019-02-09T10:52:32.169Z,9.0
2019-02-09T10:53:32.019Z,9.0
2019-02-09T10:54:32.280Z,9.0
2019-02-09T10:55:32.088Z,8.9
2019-02-09T10:56:32.348Z,8.9
2019-02-09T10:57:32.073Z,8.8
2019-02-09T10:58:32.388Z,8.8
2019-02-09T10:59:32.063Z,8.8
2019-02-09T11:00:32.033Z,8.5
2019-02-09T11:01:32.281Z,8.5
2019-02-09T11:02:32.038Z,8.5
2019-02-09T11:03:31.856Z,8.5
2019-02-09T11:04:32.500Z,8.5
2019-02-09T11:05:31.891Z,8.6
2019-02-09T11:06:32.327Z,8.6
2019-02-09T11:07:31.927Z,8.6
2019-02-09T11:08:32.370Z,8.6
2019-02-09T11:09:32.083Z,8.6
2019-02-09T11:10:32.340Z,8.5
2019-02-09T11:11:32.071Z,8.5
2019-02-09T11:12:31.884Z,8.5
2019-02-09T11:13:32.187Z,8.5
2019-02-09T11:14:32.165Z,8.5
2019-02-09T11:15:31.939Z,8.1
2019-02-09T11:16:31.870Z,8.1
2019-02-09T11:17:32.166Z,8.0
2019-02-09T11:18:32.802Z,8.0
2019-02-09T11:19:32.494Z,8.0
2019-02-09T11:20:32.109Z,8.0
2019-02-09T11:21:31.963Z,8.0
2019-02-09T11:22:32.932Z,8.0
2019-02-09T11:23:31.883Z,8.0
2019-02-09T11:24:32.801Z,8.0
2019-02-09T11:25:31.909Z,7.9
2019-02-09T11:26:32.045Z,7.9
2019-02-09T11:27:31.926Z,7.9
2019-02-09T11:28:32.665Z,8.0
2019-02-09T11:29:32.095Z,8.0
2019-02-09T11:30:32.639Z,8.0
2019-02-09T11:31:32.177Z,8.0
2019-02-09T11:32:32.401Z,8.0
2019-02-09T11:33:32.366Z,8.0
2019-02-09T11:34:31.999Z,8.0
2019-02-09T11:35:32.341Z,8.1
2019-02-09T11:36:31.924Z,8.1
2019-02-09T11:37:33.122Z,8.1
2019-02-09T11:38:32.119Z,8.2
2019-02-09T11:39:32.384Z,8.2
2019-02-09T11:40:33.202Z,8.2
2019-02-09T11:41:33.024Z,8.2
2019-02-09T11:42:32.216Z,8.2
2019-02-09T11:43:32.453Z,8.3
2019-02-09T11:44:32.098Z,8.3
2019-02-09T11:45:31.925Z,8.4
2019-02-09T11:46:32.164Z,8.4
2019-02-09T11:47:32.438Z,8.4
2019-02-09T11:48:32.029Z,8.4
2019-02-09T11:49:32.744Z,8.4
2019-02-09T11:50:32.441Z,8.4
2019-02-09T11:51:31.952Z,8.6
2019-02-09T11:52:32.250Z,8.6
2019-02-09T11:53:32.137Z,8.6
2019-02-09T11:54:32.786Z,8.6
2019-02-09T11:55:32.723Z,8.6
2019-02-09T11:56:32.188Z,8.8
2019-02-09T11:57:32.555Z,8.8
2019-02-09T11:58:32.411Z,8.8
2019-02-09T11:59:32.160Z,8.8
2019-02-09T12:00:32.227Z,8.8
2019-02-09T12:01:32.195Z,8.8
2019-02-09T12:02:32.014Z,8.8
2019-02-09T12:03:32.195Z,8.8
2019-02-09T12:04:32.209Z,8.8
2019-02-09T12:05:32.540Z,8.8
2019-02-09T12:06:32.437Z,8.7
2019-02-09T12:07:33.953Z,8.7
2019-02-09T12:08:32.569Z,8.8
2019-02-09T12:09:34.774Z,8.8
2019-02-09T12:10:32.554Z,8.8
2019-02-09T12:11:31.977Z,8.9
2019-02-09T12:12:32.565Z,8.9
2019-02-09T12:13:32.186Z,9.0
2019-02-09T12:14:32.363Z,9.0
2019-02-09T12:15:32.199Z,9.0
2019-02-09T12:16:32.434Z,9.0
2019-02-09T12:17:32.280Z,9.0
2019-02-09T12:18:32.479Z,9.0
2019-02-09T12:19:32.582Z,9.0
2019-02-09T12:20:32.223Z,9.0
2019-02-09T12:21:32.428Z,9.0
2019-02-09T12:22:32.965Z,9.0
2019-02-09T12:23:32.468Z,9.0
2019-02-09T12:24:32.016Z,9.1
2019-02-09T12:25:32.216Z,9.1
2019-02-09T12:26:32.186Z,9.3
2019-02-09T12:27:32.448Z,9.3
2019-02-09T12:28:32.254Z,9.3
2019-02-09T12:29:32.287Z,9.4
2019-02-09T12:30:32.491Z,9.4
2019-02-09T12:31:32.199Z,9.4
2019-02-09T12:32:32.205Z,9.4
2019-02-09T12:34:00.791Z,9.4
2019-02-09T12:34:32.298Z,9.4
2019-02-09T12:35:32.197Z,9.4
2019-02-09T12:36:32.338Z,9.6
2019-02-09T12:37:32.188Z,9.6
2019-02-09T12:38:32.468Z,9.6
2019-02-09T12:39:32.233Z,9.7
2019-02-09T12:40:32.282Z,9.7
2019-02-09T12:41:32.059Z,9.6
2019-02-09T12:42:32.272Z,9.6
2019-02-09T12:43:32.511Z,9.6
2019-02-09T12:44:33.384Z,9.7
2019-02-09T12:45:32.292Z,9.7
2019-02-09T12:46:32.279Z,9.5
2019-02-09T12:47:32.339Z,9.5
2019-02-09T12:48:32.246Z,9.5
2019-02-09T12:49:32.429Z,9.5
2019-02-09T12:50:32.303Z,9.5
2019-02-09T12:51:32.777Z,9.5
2019-02-09T12:52:32.519Z,9.3
2019-02-09T12:53:32.172Z,9.3
2019-02-09T12:54:32.281Z,9.8
2019-02-09T12:55:32.190Z,9.8
2019-02-09T12:56:32.589Z,9.8
2019-02-09T12:57:32.482Z,9.8
2019-02-09T12:58:32.477Z,9.8
2019-02-09T12:59:32.031Z,9.6
2019-02-09T13:00:32.250Z,9.6
2019-02-09T13:01:32.235Z,9.6
2019-02-09T13:02:32.341Z,9.6
2019-02-09T13:03:32.340Z,9.6
2019-02-09T13:04:32.715Z,9.8
2019-02-09T13:05:32.513Z,9.8
2019-02-09T13:06:32.034Z,9.8
2019-02-09T13:07:32.338Z,9.8
2019-02-09T13:08:32.346Z,9.8
2019-02-09T13:09:32.339Z,9.6
2019-02-09T13:10:32.414Z,9.6
2019-02-09T13:11:32.560Z,9.6
2019-02-09T13:12:32.267Z,9.6
2019-02-09T13:13:33.480Z,9.6
2019-02-09T13:14:32.251Z,9.6
2019-02-09T13:15:32.025Z,9.6
2019-02-09T13:16:32.035Z,9.6
2019-02-09T13:17:32.551Z,9.5
2019-02-09T13:18:34.649Z,9.5
2019-02-09T13:19:35.457Z,9.5
2019-02-09T13:20:32.410Z,9.5
2019-02-09T13:21:32.431Z,9.5
2019-02-09T13:22:32.457Z,9.5
2019-02-09T13:23:33.444Z,9.5
2019-02-09T13:24:32.338Z,9.5
2019-02-09T13:25:32.311Z,9.6
2019-02-09T13:26:32.179Z,9.6
2019-02-09T13:27:33.126Z,9.6
2019-02-09T13:28:32.470Z,9.6
2019-02-09T13:29:32.703Z,9.6
2019-02-09T13:30:32.511Z,9.5
2019-02-09T13:31:32.570Z,9.5
2019-02-09T13:32:32.671Z,9.4
2019-02-09T13:33:38.621Z,9.4
2019-02-09T13:34:32.311Z,9.4
2019-02-09T13:35:32.310Z,9.4
2019-02-09T13:36:32.225Z,9.4
2019-02-09T13:37:32.513Z,9.5
2019-02-09T13:38:32.356Z,9.5
2019-02-09T13:39:32.387Z,9.5
2019-02-09T13:40:32.338Z,9.6
2019-02-09T13:41:32.218Z,9.6
2019-02-09T13:42:32.783Z,9.6
2019-02-09T13:43:32.269Z,9.6
2019-02-09T13:44:32.166Z,9.6
2019-02-09T13:45:32.474Z,9.5
2019-02-09T13:46:32.595Z,9.5
2019-02-09T13:47:32.787Z,9.2
2019-02-09T13:48:32.527Z,9.2
2019-02-09T13:49:32.627Z,9.2
2019-02-09T13:50:33.003Z,9.2
2019-02-09T13:51:32.517Z,9.2
2019-02-09T13:52:32.331Z,9.2
2019-02-09T13:53:32.317Z,9.2
2019-02-09T13:54:32.565Z,9.2
2019-02-09T13:55:33.042Z,9.2
2019-02-09T13:56:32.292Z,9.2
2019-02-09T13:57:33.181Z,9.2
2019-02-09T13:58:32.468Z,8.9
2019-02-09T13:59:32.510Z,8.9
2019-02-09T14:00:33.003Z,8.8
2019-02-09T14:01:32.396Z,8.8
2019-02-09T14:02:32.367Z,8.8
2019-02-09T14:03:32.628Z,8.8
2019-02-09T14:04:32.894Z,8.8
2019-02-09T14:05:33.080Z,8.9
2019-02-09T14:06:32.766Z,8.9
2019-02-09T14:07:32.347Z,8.9
2019-02-09T14:08:32.866Z,8.8
2019-02-09T14:09:32.643Z,8.8
2019-02-09T14:10:32.476Z,8.9
2019-02-09T14:11:32.457Z,8.9
2019-02-09T14:12:32.835Z,8.9
2019-02-09T14:13:32.292Z,8.9
2019-02-09T14:14:32.578Z,8.9
2019-02-09T14:15:33.045Z,8.9